createdAt,value
2022-08-17T00:02:27.095Z,95.10
2022-08-17T00:06:35.938Z,95.00
2022-08-17T00:10:42.315Z,95.00
2022-08-17T00:14:48.360Z,95.00
2022-08-17T00:19:07.381Z,95.00
2022-08-17T00:23:18.143Z,95.00
2022-08-17T00:27:23.671Z,94.90
2022-08-17T00:31:29.486Z,95.00
2022-08-17T00:35:34.934Z,94.90
2022-08-17T00:39:42.971Z,94.90
2022-08-17T00:43:51.137Z,94.90
2022-08-17T00:47:56.552Z,95.00
2022-08-17T00:52:11.673Z,94.90
2022-08-17T00:56:25.313Z,94.90
2022-08-17T01:00:37.072Z,94.90
2022-08-17T01:04:42.650Z,95.00
2022-08-17T01:08:48.197Z,95.00
2022-08-17T01:13:07.220Z,95.10
2022-08-17T01:17:13.226Z,95.00
2022-08-17T01:21:23.218Z,95.10
2022-08-17T01:25:32.125Z,95.10
2022-08-17T01:29:38.815Z,94.90
2022-08-17T01:33:44.252Z,95.00
2022-08-17T01:37:49.738Z,95.20
2022-08-17T01:42:07.261Z,95.10
2022-08-17T01:46:12.867Z,95.10
2022-08-17T01:50:20.925Z,95.10
2022-08-17T01:54:27.946Z,95.20
2022-08-17T01:58:37.591Z,95.10
2022-08-17T02:02:46.033Z,95.10
2022-08-17T02:06:53.272Z,95.10
2022-08-17T02:11:00.245Z,95.10
2022-08-17T02:15:10.392Z,95.00
2022-08-17T02:19:18.516Z,95.00
2022-08-17T02:23:27.409Z,95.00
2022-08-17T02:27:32.755Z,95.10
2022-08-17T02:31:40.766Z,95.10
2022-08-17T02:35:46.334Z,95.30
2022-08-17T02:39:51.797Z,95.40
2022-08-17T02:43:57.246Z,95.30
2022-08-17T02:48:05.881Z,95.20
2022-08-17T02:52:11.525Z,95.10
2022-08-17T02:56:16.971Z,95.20
2022-08-17T03:00:25.479Z,95.10
2022-08-17T03:04:35.343Z,95.00
2022-08-17T03:08:40.998Z,95.00
2022-08-17T03:12:47.771Z,95.00
2022-08-17T03:16:53.131Z,94.80
2022-08-17T03:21:04.646Z,94.80
2022-08-17T03:25:11.828Z,94.80
2022-08-17T03:29:19.374Z,94.90
2022-08-17T03:33:25.276Z,94.70
2022-08-17T03:37:33.247Z,94.70
2022-08-17T03:41:38.926Z,94.70
2022-08-17T03:45:57.844Z,94.60
2022-08-17T03:50:15.648Z,94.70
2022-08-17T03:54:36.391Z,94.70
2022-08-17T03:58:41.883Z,94.70
2022-08-17T04:02:47.282Z,94.60
2022-08-17T04:06:52.726Z,94.60
2022-08-17T04:11:01.983Z,94.50
2022-08-17T04:15:08.401Z,94.40
2022-08-17T04:19:13.803Z,94.40
2022-08-17T04:23:21.365Z,94.30
2022-08-17T04:27:29.343Z,94.30
2022-08-17T04:31:34.763Z,94.40
2022-08-17T04:35:44.083Z,94.20
2022-08-17T04:40:09.490Z,94.20
2022-08-17T04:44:36.964Z,94.20
2022-08-17T04:48:45.874Z,93.90
2022-08-17T04:52:51.195Z,93.80
2022-08-17T04:56:56.618Z,93.70
2022-08-17T05:01:05.976Z,93.80
2022-08-17T05:05:12.243Z,93.40
2022-08-17T05:09:19.728Z,93.30
2022-08-17T05:13:27.156Z,92.70
2022-08-17T05:17:35.126Z,92.90
2022-08-17T05:21:40.491Z,92.60
2022-08-17T05:25:48.552Z,92.30
2022-08-17T05:29:55.780Z,91.80
2022-08-17T05:34:03.869Z,91.60
2022-08-17T05:38:10.274Z,91.10
2022-08-17T05:42:15.919Z,91.10
2022-08-17T05:46:26.177Z,90.40
2022-08-17T05:50:51.465Z,88.70
2022-08-17T05:55:08.936Z,89.80
2022-08-17T05:59:22.046Z,90.00
2022-08-17T06:03:39.781Z,90.60
2022-08-17T06:07:52.718Z,90.50
2022-08-17T06:12:05.720Z,90.30
2022-08-17T06:16:25.967Z,90.40
2022-08-17T06:20:48.313Z,90.50
2022-08-17T06:25:01.164Z,89.80
2022-08-17T06:29:18.737Z,87.00
2022-08-17T06:33:28.827Z,87.30
2022-08-17T06:37:48.899Z,87.60
2022-08-17T06:42:07.009Z,86.50
2022-08-17T06:46:25.499Z,85.80
2022-08-17T06:50:40.113Z,85.20
2022-08-17T06:54:54.579Z,86.20
2022-08-17T06:59:04.776Z,85.80
2022-08-17T07:03:19.115Z,84.60
2022-08-17T07:07:43.928Z,82.60
2022-08-17T07:11:54.557Z,80.30
2022-08-17T07:16:14.851Z,78.60
2022-08-17T07:20:23.752Z,78.70
2022-08-17T07:24:38.089Z,78.20
2022-08-17T07:28:45.060Z,77.60
2022-08-17T07:32:57.533Z,76.00
2022-08-17T07:37:06.569Z,76.60
2022-08-17T07:41:13.815Z,76.50
2022-08-17T07:45:31.472Z,76.00
2022-08-17T07:49:42.439Z,75.80
2022-08-17T07:53:48.189Z,76.20
2022-08-17T07:57:58.700Z,76.50
2022-08-17T08:02:17.222Z,76.80
2022-08-17T08:06:28.234Z,77.20
2022-08-17T08:10:38.650Z,77.10
2022-08-17T08:14:57.408Z,75.60
2022-08-17T08:19:04.793Z,75.50
2022-08-17T08:23:20.269Z,75.60
2022-08-17T08:27:37.107Z,75.70
2022-08-17T08:31:56.398Z,74.80
2022-08-17T08:36:12.890Z,75.20
2022-08-17T08:41:04.247Z,74.50
2022-08-17T08:45:18.818Z,74.40
2022-08-17T08:50:04.665Z,74.70
2022-08-17T08:54:22.341Z,73.60
2022-08-17T08:58:42.214Z,75.00
2022-08-17T09:03:14.297Z,74.10
2022-08-17T09:07:32.563Z,73.80
2022-08-17T09:12:01.823Z,73.40
2022-08-17T09:16:17.643Z,73.00
2022-08-17T09:20:28.286Z,73.30
2022-08-17T09:24:40.213Z,73.80
2022-08-17T09:28:52.411Z,74.20
2022-08-17T09:33:05.233Z,75.20
2022-08-17T09:37:22.911Z,74.60
2022-08-17T09:41:34.306Z,74.20
2022-08-17T09:45:46.247Z,75.00
2022-08-17T09:50:00.559Z,73.70
2022-08-17T09:54:35.216Z,72.60
2022-08-17T09:58:45.086Z,72.70
2022-08-17T10:03:16.473Z,72.90
2022-08-17T10:07:35.277Z,71.80
2022-08-17T10:12:05.773Z,71.00
2022-08-17T10:16:20.733Z,70.20
2022-08-17T10:20:30.430Z,71.00
2022-08-17T10:25:02.081Z,70.10
2022-08-17T10:29:26.028Z,67.40
2022-08-17T10:33:43.486Z,67.80
2022-08-17T10:38:15.537Z,68.30
2022-08-17T10:42:33.799Z,65.60
2022-08-17T10:46:55.595Z,61.70
2022-08-17T10:51:09.781Z,60.40
2022-08-17T10:55:17.951Z,59.80
2022-08-17T10:59:54.265Z,58.90
2022-08-17T11:04:03.675Z,58.80
2022-08-17T11:08:39.047Z,57.70
2022-08-17T11:12:57.098Z,56.10
2022-08-17T11:17:16.963Z,50.30
2022-08-17T11:21:56.083Z,45.30
2022-08-17T11:26:08.451Z,38.70
2022-08-17T11:30:16.853Z,36.20
2022-08-17T11:34:27.750Z,33.10
2022-08-17T11:38:48.794Z,32.70
2022-08-17T11:43:33.546Z,31.20
2022-08-17T11:48:26.119Z,30.00
2022-08-17T11:52:45.074Z,29.10
2022-08-17T11:56:54.167Z,29.10
2022-08-17T12:01:01.608Z,29.30
2022-08-17T12:05:14.857Z,28.20
2022-08-17T12:09:26.513Z,28.60
2022-08-17T12:13:39.890Z,28.00
2022-08-17T12:17:53.673Z,27.90
2022-08-17T12:22:04.343Z,26.90
2022-08-17T12:26:22.800Z,27.90
2022-08-17T12:30:28.707Z,28.10
2022-08-17T12:34:39.461Z,27.90
2022-08-17T12:38:52.057Z,27.10
2022-08-17T12:43:04.047Z,27.40
2022-08-17T12:47:21.987Z,27.30
2022-08-17T12:51:29.283Z,27.00
2022-08-17T12:55:40.528Z,26.90
2022-08-17T12:59:52.922Z,26.90
2022-08-17T13:04:00.825Z,27.10
2022-08-17T13:08:17.060Z,29.10
2022-08-17T13:12:34.050Z,31.30
2022-08-17T13:16:42.042Z,34.00
2022-08-17T13:20:55.635Z,36.80
2022-08-17T13:25:05.514Z,39.10
2022-08-17T13:29:11.602Z,43.00
2022-08-17T13:33:43.371Z,46.10
2022-08-17T13:38:01.788Z,49.50
2022-08-17T13:42:35.046Z,51.00
2022-08-17T13:46:57.826Z,52.20
2022-08-17T13:51:22.466Z,52.90
2022-08-17T13:55:31.212Z,54.70
2022-08-17T13:59:55.267Z,56.90
2022-08-17T14:04:03.228Z,57.80
2022-08-17T14:08:14.672Z,59.70
2022-08-17T14:12:25.135Z,60.10
2022-08-17T14:16:30.528Z,60.60
2022-08-17T14:20:35.995Z,61.00
2022-08-17T14:24:45.059Z,60.10
2022-08-17T14:28:56.644Z,60.40
2022-08-17T14:33:02.758Z,60.60
2022-08-17T14:37:08.294Z,60.70
2022-08-17T14:41:21.475Z,60.60
2022-08-17T14:45:31.752Z,60.50
2022-08-17T14:49:38.695Z,60.90
2022-08-17T14:53:45.986Z,60.40
2022-08-17T14:57:53.974Z,60.60
2022-08-17T15:02:00.823Z,60.80
2022-08-17T15:06:06.271Z,60.80
2022-08-17T15:10:12.466Z,60.60
2022-08-17T15:14:20.538Z,61.10
2022-08-17T15:18:25.943Z,60.70
2022-08-17T15:22:31.849Z,60.80
2022-08-17T15:26:38.090Z,60.50
2022-08-17T15:30:46.887Z,61.20
2022-08-17T15:34:52.315Z,61.60
2022-08-17T15:38:58.927Z,61.70
2022-08-17T15:43:08.216Z,62.30
2022-08-17T15:47:17.097Z,62.80
2022-08-17T15:51:25.377Z,63.00
2022-08-17T15:55:32.083Z,63.50
2022-08-17T15:59:38.176Z,63.60
2022-08-17T16:04:04.593Z,63.60
2022-08-17T16:08:15.879Z,64.00
2022-08-17T16:12:24.858Z,64.10
2022-08-17T16:16:31.499Z,64.10
2022-08-17T16:20:39.514Z,64.40
2022-08-17T16:24:57.229Z,64.50
2022-08-17T16:29:05.593Z,64.80
2022-08-17T16:33:15.227Z,65.10
2022-08-17T16:37:23.491Z,65.60
2022-08-17T16:41:43.076Z,66.10
2022-08-17T16:45:51.942Z,67.50
2022-08-17T16:49:57.710Z,68.00
2022-08-17T16:54:05.833Z,68.10
2022-08-17T16:58:11.397Z,68.60
2022-08-17T17:02:17.973Z,69.90
2022-08-17T17:06:32.446Z,70.00
2022-08-17T17:10:45.883Z,69.20
2022-08-17T17:14:52.627Z,69.60
2022-08-17T17:19:08.311Z,70.00
2022-08-17T17:23:31.070Z,71.40
2022-08-17T17:27:55.130Z,72.00
2022-08-17T17:32:09.604Z,77.90
2022-08-17T17:36:26.082Z,79.60
2022-08-17T17:40:38.240Z,80.50
2022-08-17T17:44:49.839Z,80.60
2022-08-17T17:48:55.217Z,81.60
2022-08-17T17:53:05.958Z,82.30
2022-08-17T17:57:21.482Z,81.80
2022-08-17T18:01:44.743Z,82.20
2022-08-17T18:06:18.745Z,82.30
2022-08-17T18:10:31.917Z,83.10
2022-08-17T18:15:00.626Z,83.50
2022-08-17T18:19:08.643Z,83.70
2022-08-17T18:23:14.333Z,83.20
2022-08-17T18:27:26.711Z,84.10
2022-08-17T18:31:32.163Z,84.70
2022-08-17T18:35:40.358Z,84.80
2022-08-17T18:39:45.789Z,84.90
2022-08-17T18:44:03.748Z,85.40
2022-08-17T18:48:21.505Z,86.20
2022-08-17T18:52:32.668Z,87.10
2022-08-17T18:56:39.085Z,88.80
2022-08-17T19:00:46.680Z,88.50
2022-08-17T19:05:10.264Z,89.20
2022-08-17T19:09:35.767Z,90.00
2022-08-17T19:13:47.140Z,90.20
2022-08-17T19:18:00.345Z,90.70
2022-08-17T19:22:28.668Z,91.20
2022-08-17T19:26:54.010Z,91.40
2022-08-17T19:31:05.925Z,91.70
2022-08-17T19:35:17.503Z,91.30
2022-08-17T19:39:38.168Z,91.10
2022-08-17T19:44:00.674Z,91.00
2022-08-17T19:48:16.629Z,90.90
2022-08-17T19:52:39.489Z,90.90
2022-08-17T19:56:50.565Z,90.80
2022-08-17T20:00:58.811Z,91.30
2022-08-17T20:05:08.000Z,91.40
2022-08-17T20:09:23.026Z,91.70
2022-08-17T20:13:39.634Z,91.70
2022-08-17T20:17:50.679Z,91.80
2022-08-17T20:21:59.348Z,92.10
2022-08-17T20:26:17.192Z,92.30
2022-08-17T20:30:40.883Z,92.30
2022-08-17T20:34:50.547Z,92.30
2022-08-17T20:38:58.844Z,92.60
2022-08-17T20:43:39.384Z,92.60
2022-08-17T20:48:15.257Z,93.00
2022-08-17T20:52:18.543Z,93.10
2022-08-17T20:56:57.656Z,93.30
2022-08-17T21:01:15.003Z,93.60
2022-08-17T21:06:00.301Z,93.40
2022-08-17T21:10:18.642Z,93.90
2022-08-17T21:14:36.703Z,94.20
2022-08-17T21:18:52.279Z,94.30
2022-08-17T21:23:18.816Z,94.30
2022-08-17T21:27:37.616Z,94.60
2022-08-17T21:31:46.123Z,94.70
2022-08-17T21:35:58.733Z,94.80
2022-08-17T21:40:19.473Z,94.40
2022-08-17T21:44:35.093Z,94.50
2022-08-17T21:48:48.348Z,94.50
2022-08-17T21:52:57.019Z,94.70
2022-08-17T21:57:04.574Z,94.70
2022-08-17T22:01:23.765Z,94.80
2022-08-17T22:05:36.359Z,95.20
2022-08-17T22:09:45.757Z,95.40
2022-08-17T22:13:51.514Z,95.30
2022-08-17T22:18:19.270Z,95.40
2022-08-17T22:22:29.272Z,95.40
2022-08-17T22:27:05.187Z,95.10
2022-08-17T22:31:14.552Z,95.20
2022-08-17T22:35:42.168Z,95.20
2022-08-17T22:39:47.683Z,95.20
2022-08-17T22:43:55.225Z,95.20
2022-08-17T22:48:04.267Z,95.40
2022-08-17T22:52:32.074Z,95.60
2022-08-17T22:56:50.766Z,95.70
2022-08-17T23:00:57.488Z,95.70
2022-08-17T23:05:24.146Z,96.00
2022-08-17T23:09:32.271Z,96.00
2022-08-17T23:13:40.034Z,95.80
2022-08-17T23:17:45.803Z,96.10
2022-08-17T23:21:55.497Z,96.20
2022-08-17T23:26:04.420Z,96.00
2022-08-17T23:30:11.627Z,96.20
2022-08-17T23:34:18.658Z,96.20
2022-08-17T23:38:27.192Z,96.10
2022-08-17T23:42:35.943Z,96.10
2022-08-17T23:46:41.696Z,96.60
2022-08-17T23:50:47.131Z,96.60
2022-08-17T23:54:52.923Z,96.80
2022-08-17T23:59:01.490Z,96.70
